Monday, July 23, 2018, 2:03 AM EDT
Back to Local

KABE, Lehigh Valley International Airport

Location: Allentown, PA, United States Lat: 40.65
Local Time: 2:03 AM EDT ( 6:03 GMT) Lon: -75.45
Time Zone: US/Eastern Elev: 393 ft

Show me the last for .
Show Decoded

2018-07-23 01:51 METAR KABE 230551Z 09005KT 9SM OVC014 24/22 A2998 RMK AO2 SLP148 60077 T02440222
                 10256 20217 50004 =
2018-07-23 01:29 METAR KABE 230529Z 06005KT 9SM BKN013 OVC023 24/22 A2998 RMK AO2 T02390217 =
2018-07-23 01:19 METAR KABE 230519Z 06004KT 9SM BKN015 OVC024 23/22 A2998 RMK AO2 T02330217 =
2018-07-23 00:51 METAR KABE 230451Z 05005KT 10SM OVC013 23/21 A2999 RMK AO2 SLP152 T02280206
                 402890178 =
2018-07-23 00:43 METAR KABE 230443Z 05004KT 10SM BKN013 BKN022 OVC032 23/21 A2999 RMK AO2
                 T02280206 =
2018-07-23 00:18 METAR KABE 230418Z 03005KT 10SM FEW013 BKN023 OVC038 22/20 A2998 =
2018-07-22 23:51 METAR KABE 230351Z 07004KT 10SM FEW019 FEW027 BKN034 23/20 A2999 RMK AO2
                 RAE0258B15E25 SLP151 P0001 T02280200 =
2018-07-22 23:40 METAR KABE 230340Z 11004KT 10SM FEW021 SCT027 BKN036 23/20 A2998 =
2018-07-22 23:33 METAR KABE 230333Z 13005KT 10SM SCT021 BKN027 BKN036 23/20 A2998 RMK AO2
                 RAE0258B15E25 P0001 T02280200 =
2018-07-22 22:59 METAR KABE 230259Z 09005KT 10SM SCT030 SCT055 BKN070 22/20 A2997 RMK AO2 LTG
                 DSNT N RAE58 P0001 T02220200 =
2018-07-22 22:51 METAR KABE 230251Z 10005KT 5SM -RA BR BKN027 BKN055 BKN065 22/20 A2997 RMK AO2
                 WSHFT 0205 LTG DSNT N AND NW SLP145 P0049 60076 T02220200 51007 =
2018-07-22 22:45 METAR KABE 230245Z 11006KT 3SM -RA BR FEW014 BKN029 OVC065 22/20 A2997 RMK AO2
                 WSHFT 0205 LTG DSNT N AND NW P0046 =
2018-07-22 22:39 METAR KABE 230239Z 12006KT 1 1/2SM +RA BR FEW012 BKN027 OVC055 22/20 A2998 RMK
                 AO2 WSHFT 0205 LTG DSNT N AND NW P0045 T02170200 =
2018-07-22 22:31 METAR KABE 230231Z 23005G17KT 1 1/2SM VCTS RA BR FEW014 BKN022 OVC055 22/20
                 A2999 RMK AO2 WSHFT 0205 VIS 1V4 LTG DSNT N AND NW P0033 T02170200 =
2018-07-22 22:21 METAR KABE 230221Z 20011KT 2SM VCTS RA SCT014 BKN023 OVC036 22/19 A2999 RMK AO2
                 WSHFT 0205 LTG DSNT W-N P0017 T02220194 =
2018-07-22 22:17 METAR KABE 230217Z 18012G21KT 1 3/4SM VCTS RA FEW009 BKN020 OVC038 22/19 A2999
                 RMK AO2 VIS 3/4V5 LTG DSNT W AND NW P0014 T02220194 =
2018-07-22 22:15 METAR KABE 230215Z 20010G22KT 2SM VCTS RA SCT012 BKN017 OVC023 22/19 A2999 RMK
                 AO2 LTG DSNT SW-NW P0011 T02220194 =
2018-07-22 22:10 METAR KABE 230210Z 24015G22KT 5SM VCTS RA FEW009 BKN014 OVC035 23/21 A2999 RMK
                 AO2 LTG DSNT SW-NW PRESRR P0000 T02330206 =
2018-07-22 21:51 METAR KABE 230151Z 11008KT 10SM RA BKN014 OVC023 26/23 A2997 RMK AO2 LTG DSNT
                 S-W SLP144 P0001 T02560228 =
2018-07-22 21:46 METAR KABE 230146Z 11006KT 10SM RA SCT014 BKN018 BKN023 26/23 A2997 RMK AO2 LTG
                 DSNT SW AND W P0001 =
2018-07-22 21:38 METAR KABE 230138Z 12007KT 10SM RA BKN014 BKN022 BKN042 25/23 A2997 RMK AO2 LTG
                 DSNT SW AND W P0001 T02500228 =
2018-07-22 20:51 METAR KABE 230051Z VRB04KT 5SM RA BR FEW016 SCT021 BKN039 24/22 A2995 RMK AO2
                 LTG DSNT N RAE16B41 TSE2358 SLP137 P0026 T02390217 =
2018-07-22 20:07 METAR KABE 230007Z 17003KT 4SM -RA FEW015 SCT026 BKN031 23/21 A2993 RMK AO2 LTG
                 DSNT N TSE2358 P0024 T02330206 =
2018-07-22 20:03 METAR KABE 230003Z 1/2SM -RA FG SCT015 BKN026 OVC032 23/21 A2992 RMK AO2 LTG
                 DSNT N TSE2358 P0024 T02280206 =
2018-07-22 19:55 METAR KABE 222355Z 23005KT 1/2SM +TSRA FG SCT017 BKN025 OVC032 23/21 A2993 RMK
                 AO2 P0008 T02280206 =
2018-07-22 19:51 METAR KABE 222351Z 28005KT 1 1/2SM +TSRA BR SCT017 BKN030 OVC110 23/21 A2993 RMK
                 AO2 RAB37 TSE2256B27 SLP131 P0011 60035 T02280206 10289 20228 53013 =
2018-07-22 19:47 METAR KABE 222347Z 25004KT 2 1/2SM -TSRA BR FEW015 BKN030 OVC055 23/21 A2993 =
2018-07-22 19:42 METAR KABE 222342Z 25008G17KT 7SM -TSRA SCT015 BKN028 OVC047 24/21 A2993 RMK AO2
                 LTG DSNT NW RAB37 TSE2256B27 CIG 021V035 P0000 T02390206 =
2018-07-22 19:33 METAR KABE 222333Z 23012G17KT 10SM TS SCT022 BKN042 OVC110 26/22 A2993 RMK AO2
                 TSE2256B27 T02610222 =
2018-07-22 19:14 METAR KABE 222314Z 11006KT 10SM VCTS SCT021 SCT029 OVC043 27/22 A2992 RMK AO2
                 LTG DSNT SW AND NW TSE2256 T02670222 =
2018-07-22 19:02 METAR KABE 222302Z 13013G16KT 10SM VCTS BKN021 BKN029 OVC050 27/22 A2991 RMK AO2
                 LTG DSNT SW AND NW TSE2256 T02670222 =
2018-07-22 18:51 METAR KABE 222251Z 12009KT 10SM TS SCT027 BKN040 OVC100 27/22 A2990 RMK AO2 LTG
                 DSNT SW AND W RAB26E45 TSB41 SLP124 P0002 T02670217 =
2018-07-22 18:41 METAR KABE 222241Z 15007KT 6SM -TSRA FEW027 BKN060 BKN095 26/22 A2991 RMK AO2
                 LTG DSNT S-NW RAB26 TSB41 P0002 T02610222 =
2018-07-22 17:51 METAR KABE 222151Z 14016G21KT 10SM FEW120 28/22 A2988 RMK AO2 PK WND 13027/2129
                 LTG DSNT SW RAB05E15 SLP114 P0000 T02830217 =
2018-07-22 16:51 METAR KABE 222051Z 04005KT 10SM FEW034 SCT041 BKN070 26/23 A2989 RMK AO2 RAE1958
                 SLP119 P0000 60022 T02610228 56003 =
2018-07-22 15:58 METAR KABE 221958Z 23005KT 9SM FEW019 SCT036 BKN075 25/22 A2989 =
2018-07-22 15:51 METAR KABE 221951Z 23007KT 4SM RA BR BKN021 BKN040 OVC075 24/22 A2989 RMK AO2
                 RAB06 SLP119 P0022 T02390217 =
2018-07-22 15:48 METAR KABE 221948Z 24004KT 2SM RA BR SCT017 BKN028 OVC075 24/22 A2989 RMK AO2
                 VIS 1V5 RAB06 P0020 =
2018-07-22 15:42 METAR KABE 221942Z 24008KT 1SM +RA SCT017 BKN030 OVC060 24/21 A2989 RMK AO2
                 RAB06 P0018 T02390211 =
2018-07-22 15:24 METAR KABE 221924Z 23009KT 2SM +RA FEW019 BKN049 OVC075 24/21 A2990 RMK AO2
                 RAB06 P0005 T02440211 =
2018-07-22 14:51 METAR KABE 221851Z 00000KT 10SM SCT026 BKN036 OVC049 25/20 A2989 RMK AO2 SLP120
                 T02500200 =
2018-07-22 14:46 METAR KABE 221846Z 24005KT 10SM BKN026 OVC036 25/20 A2990 RMK AO2 =
2018-07-22 14:14 METAR KABE 221814Z 11010KT 10SM SCT028 OVC040 28/20 A2989 RMK AO2 T02780200 =
2018-07-22 14:03 METAR KABE 221803Z 12010KT 10SM BKN028 BKN038 BKN045 28/20 A2990 RMK AO2
                 T02780200 =
2018-07-22 13:51 METAR KABE 221751Z 12010KT 100V160 10SM SCT026 BKN032 OVC040 27/20 A2990 RMK AO2
                 SLP123 T02720200 10272 20222 50003 =
2018-07-22 13:14 METAR KABE 221714Z 13004KT 10SM BKN030 BKN055 BKN070 27/19 A2991 RMK AO2
                 T02670194 =
2018-07-22 12:51 METAR KABE 221651Z VRB06G17KT 10SM BKN023 27/19 A2991 RMK AO2 SLP124 T02670194 =
2018-07-22 12:37 METAR KABE 221637Z 13007KT 100V160 10SM SCT023 27/19 A2991 RMK AO2 T02670194 =
2018-07-22 11:51 METAR KABE 221551Z 16008KT 130V200 10SM OVC022 25/19 A2991 RMK AO2 SLP127
                 T02500194 =
2018-07-22 10:51 METAR KABE 221451Z 17009KT 10SM BKN018 OVC024 24/19 A2989 RMK AO2 SLP120
                 T02390189 53019 =
2018-07-22 09:51 METAR KABE 221351Z 20010KT 10SM OVC016 23/18 A2987 RMK AO2 SLP111 T02280183 =
2018-07-22 08:51 METAR KABE 221251Z 17007KT 10SM BKN015 OVC021 22/19 A2984 RMK AO2 SLP102
                 T02220189 =
2018-07-22 08:47 METAR KABE 221247Z 16007KT 10SM BKN013 OVC021 22/19 A2984 RMK AO2 =
2018-07-22 07:51 METAR KABE 221151Z 16006KT 10SM OVC020 22/19 A2981 RMK AO2 RAE1056 CIG 014V026
                 SLP092 P0000 60024 70093 T02220189 10228 20189 53046 =
2018-07-22 07:00 METAR KABE 221100Z 19011KT 10SM SCT009 BKN016 OVC022 22/19 A2976 RMK AO2 RAE1056
                 P0000 T02220194 =
2018-07-22 06:51 METAR KABE 221051Z 18013G17KT 3SM -RA BR BKN009 BKN016 OVC023 22/20 A2975 RMK
                 AO2 CIG 007V013 SLP073 P0005 T02220200 =
2018-07-22 06:01 METAR KABE 221001Z 11009KT 2 1/2SM -RA BR BKN009 OVC014 22/20 A2971 RMK AO2
                 P0001 T02220200 =
2018-07-22 05:51 METAR KABE 220951Z 12009G21KT 2 1/2SM -RA BR BKN010 OVC016 22/20 A2971 RMK AO2
                 SLP057 P0005 T02220200 =
2018-07-22 05:13 METAR KABE 220913Z 12011G21KT 2SM -RA BR BKN011 OVC015 22/20 A2968 RMK AO2 P0003
                 T02220200 =
2018-07-22 04:51 METAR KABE 220851Z 12012G21KT 5SM -RA BR BKN011 OVC018 23/21 A2967 RMK AO2 PK
                 WND 10028/0752 SLP045 P0001 60014 T02280206 55006 =
2018-07-22 04:32 METAR KABE 220832Z 12015G21KT 5SM -RA BR SCT010 BKN015 OVC022 23/21 A2967 RMK
                 AO2 PK WND 10028/0752 P0001 T02280206 =
2018-07-22 03:51 METAR KABE 220751Z 11014G22KT 9SM -RA OVC012 23/21 A2966 RMK AO2 SLP041 P0003
                 T02280206 =
2018-07-22 03:30 METAR KABE 220730Z 11015G20KT 6SM -RA BR FEW006 BKN011 OVC014 23/21 A2967 RMK
                 AO2 CIG 007V013 P0002 T02280206 =
2018-07-22 02:51 METAR KABE 220651Z 06014KT 8SM -RA BKN006 OVC012 20/18 A2968 RMK AO2 SLP046
                 P0010 T02000183 =
2018-07-22 02:42 METAR KABE 220642Z 06015KT 4SM -RA BR BKN006 OVC012 19/18 A2968 RMK AO2 P0010
                 T01940178 =
2018-07-22 02:35 METAR KABE 220635Z 07014KT 2 1/2SM -RA BR BKN006 BKN012 OVC018 19/18 A2968 RMK
                 AO2 P0009 T01940178 =
2018-07-22 02:27 METAR KABE 220627Z 07013KT 3SM RA BR SCT006 OVC014 19/17 A2969 RMK AO2 P0006
                 T01940172 =

Support USWX by starting your Amazon purchase here.